Time;durP1;ratioP1;P1;durP2;ratioP2;P2;SDS_P1;SDS_P2;PMS_P1;PMS_P2;Temp;Humidity;BMP_temperature;BMP_pressure;BME280_temperature;BME280_humidity;BME280_pressure;Samples;Min_cycle;Max_cycle;Signal;HPM_P1;HPM_P2
2022/02/08 00:02:16;;;;;;;28.95;12.13;;;;;;;5.23;60.16;99927.53;5025335;28;20591;-73
2022/02/08 00:04:44;;;;;;;20.25;9.02;;;;;;;5.18;60.04;99935.63;5026615;28;20053;-74
2022/02/08 00:07:12;;;;;;;23.45;9.65;;;;;;;5.17;59.86;99932.19;5026095;28;20050;-73
2022/02/08 00:09:39;;;;;;;28.33;8.27;;;;;;;5.22;59.74;99937.19;5025108;28;20049;-74
2022/02/08 00:12:07;;;;;;;19.90;6.30;;;;;;;5.23;59.78;99935.41;5025648;28;20079;-73
2022/02/08 00:14:33;;;;;;;18.92;7.60;;;;;;;5.25;59.75;99947.47;5024247;28;20052;-75
2022/02/08 00:17:02;;;;;;;25.08;9.40;;;;;;;5.28;59.64;99951.69;5025679;28;20132;-72
2022/02/08 00:19:29;;;;;;;33.15;10.65;;;;;;;5.26;59.67;99956.19;5025556;28;20045;-74
2022/02/08 00:21:56;;;;;;;19.33;6.05;;;;;;;5.31;59.54;99959.38;5025528;28;20049;-72
2022/02/08 00:24:23;;;;;;;20.95;7.43;;;;;;;5.38;59.45;99965.94;5025982;28;20045;-74
2022/02/08 00:26:50;;;;;;;27.27;8.73;;;;;;;5.37;59.52;99972.13;5026020;28;20049;-72
2022/02/08 00:29:17;;;;;;;29.35;8.38;;;;;;;5.40;59.24;99968.50;5026485;28;20590;-73
2022/02/08 00:31:44;;;;;;;20.65;8.00;;;;;;;5.43;59.20;99984.88;5025221;28;20600;-72
2022/02/08 00:34:13;;;;;;;25.30;8.68;;;;;;;5.40;59.23;99979.81;5025406;28;20053;-73
2022/02/08 00:36:40;;;;;;;30.02;9.25;;;;;;;5.43;59.12;99995.34;5025911;28;20146;-74
2022/02/08 00:39:08;;;;;;;27.67;7.75;;;;;;;5.44;59.28;99986.59;5024917;28;20037;-73
2022/02/08 00:41:36;;;;;;;20.27;7.60;;;;;;;5.46;59.40;100000.44;5026297;28;20113;-74
2022/02/08 00:44:08;;;;;;;26.98;8.38;;;;;;;5.51;59.21;100000.16;5023961;28;20519;-72
2022/02/08 00:46:41;;;;;;;28.05;8.57;;;;;;;5.51;59.00;99994.91;5026304;28;20042;-73
2022/02/08 00:49:10;;;;;;;19.27;7.82;;;;;;;5.46;59.13;99987.34;5025451;28;20046;-71
2022/02/08 00:51:43;;;;;;;28.98;8.80;;;;;;;5.47;59.10;100002.09;5025293;28;20052;-73
2022/02/08 00:54:10;;;;;;;23.10;8.75;;;;;;;5.48;59.21;99997.75;5025379;28;20049;-73
2022/02/08 00:56:38;;;;;;;23.20;7.40;;;;;;;5.48;59.08;99998.56;5026357;28;20053;-73
2022/02/08 00:59:07;;;;;;;24.85;9.98;;;;;;;5.47;59.06;100004.72;5025267;28;20049;-73
2022/02/08 01:01:36;;;;;;;21.52;9.55;;;;;;;5.49;59.22;100008.13;5026529;28;20076;-73
2022/02/08 01:04:04;;;;;;;20.92;8.38;;;;;;;5.49;59.18;100020.38;5024532;28;20049;-73
2022/02/08 01:06:31;;;;;;;18.73;8.02;;;;;;;5.51;59.05;100014.13;5024684;28;20049;-72
2022/02/08 01:09:10;;;;;;;22.52;8.90;;;;;;;5.53;58.97;100022.75;5025605;28;20103;-73
2022/02/08 01:11:38;;;;;;;23.23;7.13;;;;;;;5.49;59.32;100023.84;5026051;28;20053;-72
2022/02/08 01:14:06;;;;;;;24.98;6.57;;;;;;;5.46;59.26;100024.00;5023754;28;20128;-73
2022/02/08 01:16:33;;;;;;;19.00;8.35;;;;;;;5.43;59.29;100031.19;5025385;28;20203;-73
2022/02/08 01:19:01;;;;;;;22.85;7.22;;;;;;;5.42;59.44;100025.13;5025510;28;20186;-73
2022/02/08 01:21:30;;;;;;;27.67;8.65;;;;;;;5.46;59.29;100034.50;5025333;28;20136;-70
2022/02/08 01:23:57;;;;;;;33.17;8.90;;;;;;;5.37;59.41;100027.13;5026219;28;20117;-73
2022/02/08 01:26:27;;;;;;;21.65;8.93;;;;;;;5.41;59.35;100033.06;5026337;28;20041;-74
2022/02/08 01:29:00;;;;;;;24.58;8.13;;;;;;;5.41;59.04;100033.88;5025730;28;20099;-72
2022/02/08 01:31:28;;;;;;;26.20;7.38;;;;;;;5.38;59.21;100044.53;5024973;28;20049;-72
2022/02/08 01:37:01;;;;;;;23.35;8.05;;;;;;;5.31;59.34;100054.50;5022642;28;20057;-73
2022/02/08 01:39:35;;;;;;;19.73;7.10;;;;;;;5.31;59.30;100064.97;5025593;28;20049;-72
2022/02/08 01:42:25;;;;;;;24.60;7.10;;;;;;;5.36;59.40;100065.56;5027057;28;20042;-73
2022/02/08 01:45:09;;;;;;;25.40;8.20;;;;;;;5.31;59.34;100061.50;5026481;28;20049;-70
2022/02/08 01:47:46;;;;;;;22.88;8.18;;;;;;;5.31;59.50;100074.59;5026861;28;20064;-73
2022/02/08 01:50:16;;;;;;;31.42;8.68;;;;;;;5.26;59.54;100081.88;5030290;28;20382;-75
2022/02/08 01:52:44;;;;;;;24.15;7.43;;;;;;;5.31;59.39;100085.06;5029656;28;20045;-72
2022/02/08 01:55:13;;;;;;;29.95;7.65;;;;;;;5.33;59.40;100093.69;5029757;28;20128;-70
2022/02/08 01:57:46;;;;;;;21.80;6.80;;;;;;;5.29;59.52;100093.00;5032388;28;20136;-72
2022/02/08 02:00:16;;;;;;;27.33;7.80;;;;;;;5.30;59.55;100094.69;5033399;28;20053;-71
2022/02/08 02:02:43;;;;;;;25.17;7.55;;;;;;;5.30;59.29;100091.25;5033216;28;20646;-71
2022/02/08 02:05:10;;;;;;;25.00;6.50;;;;;;;5.27;59.59;100088.78;5035186;28;20049;-71
2022/02/08 02:07:46;;;;;;;22.85;8.65;;;;;;;5.26;59.53;100101.03;5038490;28;20136;-70
2022/02/08 02:10:13;;;;;;;16.08;5.97;;;;;;;5.28;59.59;100106.19;5035459;28;20050;-73
2022/02/08 02:12:52;;;;;;;18.67;8.25;;;;;;;5.23;59.94;100108.22;5029742;28;20512;-71
2022/02/08 02:15:19;;;;;;;26.92;9.52;;;;;;;5.24;59.59;100097.66;5030267;28;20057;-70
2022/02/08 02:17:46;;;;;;;25.95;8.82;;;;;;;5.16;59.72;100111.13;5031130;28;20128;-72
2022/02/08 02:20:13;;;;;;;25.23;6.57;;;;;;;5.16;59.74;100118.16;5032674;28;20053;-72
2022/02/08 02:22:40;;;;;;;28.60;9.43;;;;;;;5.13;59.86;100123.53;5032877;28;20436;-72
2022/02/08 02:25:19;;;;;;;15.75;6.18;;;;;;;5.14;60.12;100131.31;5032226;28;20057;-72
2022/02/08 02:27:48;;;;;;;25.15;8.38;;;;;;;5.12;59.92;100120.09;5031682;28;20128;-71
2022/02/08 02:30:15;;;;;;;23.42;7.22;;;;;;;5.13;59.91;100134.00;5033050;28;20045;-74
2022/02/08 02:32:43;;;;;;;25.30;7.93;;;;;;;5.10;59.90;100124.56;5030424;28;20385;-73
2022/02/08 02:35:11;;;;;;;23.40;8.57;;;;;;;5.09;60.08;100135.94;5030574;28;20064;-72
2022/02/08 02:37:38;;;;;;;25.33;7.13;;;;;;;5.13;59.92;100132.25;5030928;28;20119;-71
2022/02/08 02:40:06;;;;;;;25.08;8.40;;;;;;;5.11;60.03;100147.22;5029975;28;20128;-72
2022/02/08 02:42:35;;;;;;;20.50;7.22;;;;;;;5.08;59.94;100152.59;5029933;28;20085;-72
2022/02/08 02:45:03;;;;;;;21.27;7.05;;;;;;;5.06;59.93;100145.72;5030982;28;20056;-71
2022/02/08 02:47:30;;;;;;;21.75;6.60;;;;;;;5.06;60.20;100149.22;5031012;28;20049;-70
2022/02/08 02:49:58;;;;;;;23.08;7.95;;;;;;;5.07;60.10;100156.13;5030240;28;20132;-70
2022/02/08 02:52:24;;;;;;;22.23;7.25;;;;;;;5.09;60.05;100164.75;5030227;28;20512;-71
2022/02/08 02:54:52;;;;;;;21.00;7.82;;;;;;;5.09;59.94;100164.75;5030325;28;20049;-73
2022/02/08 02:57:21;;;;;;;22.30;5.38;;;;;;;5.09;60.07;100169.97;5029392;28;20041;-73
2022/02/08 02:59:59;;;;;;;16.13;5.70;;;;;;;5.13;59.99;100170.66;5044644;28;20069;-71
2022/02/08 03:02:38;;;;;;;23.48;7.32;;;;;;;5.11;60.06;100173.38;5049369;28;20097;-72
2022/02/08 03:05:14;;;;;;;23.35;7.28;;;;;;;5.06;60.20;100174.50;5050722;28;20045;-74
2022/02/08 03:18:43;;;;;;;27.10;8.85;;;;;;;4.93;60.44;100201.34;5051291;28;20057;-72
2022/02/08 03:21:11;;;;;;;23.48;10.63;;;;;;;4.84;60.76;100204.38;5045927;28;20073;-71
2022/02/08 03:23:39;;;;;;;32.78;11.38;;;;;;;4.84;60.79;100203.53;5052189;28;20060;-72
2022/02/08 03:26:06;;;;;;;21.90;9.43;;;;;;;4.85;60.57;100213.09;5051599;28;20061;-70
2022/02/08 03:28:34;;;;;;;18.75;7.40;;;;;;;4.84;60.74;100214.00;5052301;28;20052;-73
2022/02/08 03:31:02;;;;;;;18.77;6.65;;;;;;;4.82;60.75;100215.88;5052344;28;20048;-73
2022/02/08 03:33:29;;;;;;;26.73;7.57;;;;;;;4.79;60.79;100224.72;5052558;28;20072;-74
2022/02/08 03:35:57;;;;;;;23.08;7.35;;;;;;;4.77;60.48;100223.94;5051735;28;20049;-73
2022/02/08 03:38:31;;;;;;;24.55;6.70;;;;;;;4.74;60.90;100232.78;5051724;28;20045;-73
2022/02/08 03:40:58;;;;;;;23.90;7.15;;;;;;;4.73;60.96;100230.25;5046444;28;20076;-73
2022/02/08 03:43:31;;;;;;;24.52;8.48;;;;;;;4.75;60.94;100246.72;5040996;28;20728;-72
2022/02/08 03:46:03;;;;;;;30.17;11.63;;;;;;;4.78;60.81;100250.03;5031883;28;20048;-71
2022/02/08 03:48:34;;;;;;;22.20;7.07;;;;;;;4.81;60.99;100250.78;5031139;28;20041;-69
2022/02/08 03:51:09;;;;;;;19.00;8.65;;;;;;;4.81;60.78;100261.25;5030343;28;20045;-72
2022/02/08 03:53:37;;;;;;;23.60;7.60;;;;;;;4.85;60.87;100257.59;5030315;28;20045;-72
2022/02/08 03:56:06;;;;;;;27.55;9.05;;;;;;;4.82;60.70;100258.56;5030161;28;20061;-73
2022/02/08 03:58:34;;;;;;;17.80;7.97;;;;;;;4.86;60.68;100267.13;5030397;28;20045;-73
2022/02/08 04:01:26;;;;;;;20.80;10.95;;;;;;;4.89;60.59;100272.22;5049456;28;20071;-74
2022/02/08 04:04:17;;;;;;;28.40;13.68;;;;;;;4.88;60.16;100270.50;5028717;28;20041;-71
2022/02/08 04:06:47;;;;;;;26.45;11.02;;;;;;;4.95;60.27;100282.38;5028637;28;20049;-74
2022/02/08 04:09:17;;;;;;;34.33;9.40;;;;;;;4.95;60.44;100291.09;5028815;28;20045;-73
2022/02/08 04:11:53;;;;;;;40.92;15.60;;;;;;;5.00;60.57;100301.31;5029154;28;20050;-73
2022/02/08 04:14:28;;;;;;;18.85;5.20;;;;;;;5.03;60.36;100305.59;5027869;28;20046;-74
2022/02/08 04:17:01;;;;;;;17.85;7.93;;;;;;;5.04;60.41;100296.78;5028755;28;20087;-73
2022/02/08 04:19:35;;;;;;;20.48;6.65;;;;;;;5.05;60.59;100304.56;5029302;28;20489;-73
2022/02/08 04:33:08;;;;;;;20.35;9.32;;;;;;;5.02;60.87;100315.19;5027609;28;20055;-72
2022/02/08 04:35:56;;;;;;;25.38;9.63;;;;;;;5.04;60.71;100318.59;5027940;28;20241;-73
2022/02/08 04:38:36;;;;;;;26.80;8.25;;;;;;;5.02;60.73;100317.78;5027923;28;20416;-72
2022/02/08 04:41:09;;;;;;;23.63;8.50;;;;;;;4.98;60.75;100316.25;5027838;28;20057;-73
2022/02/08 04:43:44;;;;;;;26.05;7.72;;;;;;;4.93;61.13;100316.50;5025694;28;20043;-74
2022/02/08 04:46:24;;;;;;;;;;;;;;;5.17;60.42;100324.91;5027461;28;20050;-73
2022/02/08 04:48:54;;;;;;;12.82;5.28;;;;;;;4.98;60.84;100324.13;5027768;28;19930;-74
2022/02/08 04:51:35;;;;;;;16.67;5.85;;;;;;;4.91;60.96;100333.19;5028067;28;20410;-72
2022/02/08 04:54:13;;;;;;;21.98;6.82;;;;;;;4.89;61.01;100332.41;5025143;28;20053;-72
2022/02/08 04:57:00;;;;;;;21.30;7.00;;;;;;;4.91;60.95;100328.78;5026619;28;20045;-72
2022/02/08 04:59:51;;;;;;;14.43;7.38;;;;;;;4.94;60.97;100330.44;5026762;28;20046;-72
2022/02/08 05:26:31;;;;;;;25.13;8.93;;;;;;;4.99;60.50;100341.53;5026598;28;20056;-73
2022/02/08 05:28:08;;;;;;;20.63;6.45;;;;;;;5.21;59.68;100357.03;4832705;29;20077;-74
2022/02/08 05:36:57;;;;;;;20.73;6.38;;;;;;;5.14;59.72;100368.72;4741766;30;20506;-71
2022/02/08 05:42:21;;;;;;;22.55;6.75;;;;;;;5.20;59.29;100372.81;4726300;30;20076;-72
2022/02/08 05:44:55;;;;;;;20.20;8.18;;;;;;;5.17;59.30;100377.28;4758972;29;20054;-73
2022/02/08 05:47:23;;;;;;;16.45;7.15;;;;;;;5.15;59.65;100381.75;4802601;29;20073;-72
2022/02/08 05:50:03;;;;;;;14.40;7.00;;;;;;;5.14;59.64;100382.66;4811762;29;20072;-72
2022/02/08 05:52:46;;;;;;;27.88;7.20;;;;;;;5.21;59.63;100377.16;4838669;29;20791;-72
2022/02/08 05:55:14;;;;;;;15.55;6.93;;;;;;;5.25;59.43;100383.94;4868169;29;20695;-73
2022/02/08 05:57:42;;;;;;;17.02;5.85;;;;;;;5.26;59.66;100386.47;4870259;29;20053;-74
2022/02/08 06:00:11;;;;;;;19.15;6.75;;;;;;;5.22;59.82;100387.56;4905483;29;20424;-72
2022/02/08 06:02:40;;;;;;;32.50;9.70;;;;;;;5.21;60.04;100403.34;4906256;29;20060;-71
2022/02/08 06:05:12;;;;;;;27.35;8.75;;;;;;;5.21;59.71;100395.47;4967598;28;20085;-69
2022/02/08 06:07:39;;;;;;;24.45;7.78;;;;;;;5.16;59.88;100393.91;4982191;28;20050;-71
2022/02/08 06:10:07;;;;;;;25.05;8.15;;;;;;;5.20;59.99;100399.00;4982189;28;20681;-72
2022/02/08 06:12:44;;;;;;;21.02;6.97;;;;;;;5.22;59.96;100410.25;4989568;28;20577;-71
2022/02/08 06:15:14;;;;;;;26.85;10.98;;;;;;;5.25;59.55;100397.03;5023208;28;20061;-71
2022/02/08 06:17:41;;;;;;;26.77;9.38;;;;;;;5.24;59.57;100408.41;5024596;28;20453;-70
2022/02/08 06:20:09;;;;;;;23.23;7.78;;;;;;;5.23;60.03;100407.56;5022886;28;20055;-73
2022/02/08 06:22:36;;;;;;;23.50;7.60;;;;;;;5.17;60.03;100408.72;5023072;28;20531;-72
2022/02/08 06:25:05;;;;;;;19.92;6.35;;;;;;;5.22;60.01;100413.75;5024332;28;20409;-72
2022/02/08 06:27:32;;;;;;;21.88;7.78;;;;;;;5.19;60.02;100416.50;5022741;28;20676;-72
2022/02/08 06:30:01;;;;;;;31.38;11.13;;;;;;;5.20;59.96;100420.78;5022001;28;20132;-72
2022/02/08 06:32:31;;;;;;;20.60;7.80;;;;;;;5.22;59.81;100423.34;5022818;28;20204;-73
2022/02/08 06:34:59;;;;;;;22.42;7.80;;;;;;;5.22;59.88;100425.97;5022590;28;20680;-75
2022/02/08 06:37:30;;;;;;;19.95;8.15;;;;;;;5.25;59.78;100425.81;5022677;28;20041;-72
2022/02/08 06:39:57;;;;;;;26.42;8.10;;;;;;;5.26;59.77;100430.16;5022303;28;20294;-74
2022/02/08 06:42:25;;;;;;;19.90;8.23;;;;;;;5.34;59.70;100431.47;5021650;28;20187;-70
2022/02/08 06:44:51;;;;;;;20.45;6.63;;;;;;;5.40;59.53;100434.72;5019049;28;20490;-71
2022/02/08 06:47:20;;;;;;;18.52;6.97;;;;;;;5.41;59.36;100429.41;5021259;28;20084;-71
2022/02/08 06:49:48;;;;;;;17.63;4.32;;;;;;;5.47;59.09;100434.34;5020594;28;20520;-72
2022/02/08 06:52:15;;;;;;;17.20;6.97;;;;;;;5.55;58.95;100428.75;5018974;28;20049;-72
2022/02/08 06:54:42;;;;;;;23.88;5.63;;;;;;;5.56;58.72;100433.03;5023074;28;20629;-72
2022/02/08 06:57:09;;;;;;;29.58;7.22;;;;;;;5.51;58.74;100440.28;5022485;28;20073;-73
2022/02/08 06:59:38;;;;;;;17.48;5.93;;;;;;;5.47;58.66;100436.94;5021068;28;20050;-70
2022/02/08 07:02:05;;;;;;;24.92;8.25;;;;;;;5.50;58.67;100426.34;5019590;28;20050;-72
2022/02/08 07:04:34;;;;;;;30.02;10.10;;;;;;;5.51;58.83;100428.03;5020634;28;20149;-70
2022/02/08 07:07:01;;;;;;;19.40;7.07;;;;;;;5.47;58.57;100433.50;5022845;28;20128;-71
2022/02/08 07:09:28;;;;;;;24.70;8.32;;;;;;;5.47;58.43;100423.84;5018778;28;20052;-71
2022/02/08 07:11:57;;;;;;;22.98;6.97;;;;;;;5.39;58.89;100433.88;5022938;28;20695;-72
2022/02/08 07:14:29;;;;;;;23.02;7.47;;;;;;;5.48;58.73;100440.44;5020753;28;20049;-72
2022/02/08 07:16:56;;;;;;;19.58;5.63;;;;;;;5.61;58.42;100438.06;5023344;28;20068;-71
2022/02/08 07:19:23;;;;;;;25.20;8.38;;;;;;;5.45;58.58;100440.59;5022673;28;20049;-72
2022/02/08 07:21:52;;;;;;;24.63;8.35;;;;;;;5.47;58.35;100430.88;5026236;28;20081;-71
2022/02/08 07:24:19;;;;;;;15.00;5.82;;;;;;;5.43;58.42;100429.34;5024292;28;20088;-72
2022/02/08 07:26:47;;;;;;;19.48;5.35;;;;;;;5.47;58.27;100431.72;5023221;28;20482;-73
2022/02/08 07:29:17;;;;;;;28.85;8.98;;;;;;;5.55;58.17;100434.81;5020983;28;20394;-72
2022/02/08 07:31:50;;;;;;;29.25;8.60;;;;;;;5.49;58.09;100429.91;5022741;28;20049;-71
2022/02/08 07:34:20;;;;;;;22.55;7.95;;;;;;;5.46;58.09;100429.19;5023365;28;20069;-75
2022/02/08 07:36:55;;;;;;;24.23;7.03;;;;;;;5.52;58.04;100428.88;5024436;28;20069;-72
2022/02/08 07:39:25;;;;;;;18.73;5.82;;;;;;;5.59;57.84;100430.28;5022354;28;20539;-70
2022/02/08 07:41:52;;;;;;;29.50;8.85;;;;;;;5.54;57.75;100433.13;5022025;28;20047;-72
2022/02/08 07:44:20;;;;;;;19.63;6.38;;;;;;;5.55;57.81;100439.22;5020506;28;20120;-71
2022/02/08 07:46:47;;;;;;;28.50;9.93;;;;;;;5.49;57.88;100436.88;5022283;28;20128;-72
2022/02/08 07:49:14;;;;;;;19.38;6.50;;;;;;;5.65;57.69;100437.81;5023624;28;20046;-71
2022/02/08 07:51:42;;;;;;;25.38;6.10;;;;;;;5.63;57.50;100428.38;5022940;28;20128;-72
2022/02/08 07:54:11;;;;;;;14.65;7.75;;;;;;;5.63;57.55;100425.75;5023886;28;20045;-73
2022/02/08 07:56:39;;;;;;;30.67;11.52;;;;;;;5.67;57.08;100433.38;5021596;28;20091;-72
2022/02/08 07:59:07;;;;;;;30.92;7.32;;;;;;;5.74;57.21;100439.16;5021612;28;20158;-72
2022/02/08 08:01:34;;;;;;;16.35;5.63;;;;;;;5.84;56.93;100436.94;5023004;28;20497;-76
2022/02/08 08:04:01;;;;;;;17.55;4.93;;;;;;;5.99;56.71;100454.53;5022778;28;20051;-73
2022/02/08 08:06:28;;;;;;;15.98;5.18;;;;;;;5.98;56.46;100452.88;5024751;28;20052;-73
2022/02/08 08:08:56;;;;;;;25.08;9.07;;;;;;;5.98;56.06;100446.75;5024388;28;20660;-70
2022/02/08 08:11:23;;;;;;;33.42;7.35;;;;;;;5.81;56.08;100447.56;5023769;28;20128;-70
2022/02/08 08:14:00;;;;;;;22.17;5.78;;;;;;;5.99;56.00;100457.16;5020619;28;20785;-70
2022/02/08 08:16:39;;;;;;;21.63;6.10;;;;;;;5.98;55.82;100447.63;5023917;28;20053;-73
2022/02/08 08:19:20;;;;;;;18.83;6.65;;;;;;;5.98;55.86;100452.88;5023638;28;20610;-72
2022/02/08 08:21:47;;;;;;;25.80;8.63;;;;;;;6.00;55.77;100458.03;5022210;28;20089;-72
2022/02/08 08:24:15;;;;;;;16.85;5.40;;;;;;;6.25;55.46;100465.50;5023407;28;20061;-73
2022/02/08 08:26:42;;;;;;;19.75;6.95;;;;;;;6.41;55.03;100455.91;5023437;28;20055;-71
2022/02/08 08:29:10;;;;;;;19.75;7.03;;;;;;;6.23;54.95;100456.84;5026283;28;20132;-73
2022/02/08 08:31:40;;;;;;;16.60;7.10;;;;;;;6.31;55.07;100452.91;5024021;28;20693;-73
2022/02/08 08:34:07;;;;;;;10.73;5.53;;;;;;;6.45;54.61;100448.75;5022955;28;20080;-75
2022/02/08 08:36:34;;;;;;;20.55;8.30;;;;;;;6.55;54.18;100451.72;5024751;28;20049;-72
2022/02/08 08:39:03;;;;;;;24.63;7.93;;;;;;;6.49;54.15;100445.03;5022819;28;20129;-75
2022/02/08 08:41:35;;;;;;;17.50;6.90;;;;;;;6.67;53.87;100453.69;5022501;28;20050;-72
2022/02/08 08:44:35;;;;;;;19.90;4.38;;;;;;;6.97;53.22;100443.34;5021622;28;20141;-73
2022/02/08 08:50:05;;;;;;;20.35;7.22;;;;;;;7.13;52.77;100434.59;5027640;28;20052;-73
2022/02/08 08:52:36;;;;;;;14.80;5.57;;;;;;;6.99;52.80;100427.50;5024068;28;20147;-71
2022/02/08 08:55:05;;;;;;;24.52;6.45;;;;;;;6.98;52.96;100420.53;5023443;28;20119;-72
2022/02/08 08:57:32;;;;;;;20.35;6.80;;;;;;;7.16;52.48;100411.63;5029378;28;20049;-73
2022/02/08 08:59:59;;;;;;;19.38;8.13;;;;;;;7.46;51.78;100419.56;5031038;28;20065;-76
2022/02/08 09:02:30;;;;;;;20.52;7.65;;;;;;;7.55;51.70;100422.63;5026773;28;20041;-73
2022/02/08 09:04:57;;;;;;;19.50;6.10;;;;;;;7.79;50.89;100410.66;5021341;28;20145;-72
2022/02/08 09:07:25;;;;;;;12.73;4.13;;;;;;;7.94;51.03;100411.56;5028856;28;20072;-74
2022/02/08 09:09:57;;;;;;;14.05;5.63;;;;;;;8.19;50.89;100420.63;5037072;28;20673;-74
2022/02/08 09:12:27;;;;;;;16.63;5.30;;;;;;;8.08;50.25;100437.03;5029622;28;20633;-71
2022/02/08 09:18:14;;;;;;;21.65;8.13;;;;;;;7.41;51.07;100434.75;4982499;28;20047;-71
2022/02/08 09:26:12;;;;;;;17.98;7.22;;;;;;;7.29;50.89;100411.78;4980333;28;20098;-74
2022/02/08 09:28:52;;;;;;;21.88;8.82;;;;;;;7.05;51.28;100427.97;4977292;28;20050;-73
2022/02/08 09:31:20;;;;;;;26.25;7.70;;;;;;;6.98;51.76;100421.38;4954103;28;20042;-73
2022/02/08 09:33:50;;;;;;;16.92;8.10;;;;;;;7.31;51.61;100427.47;4974291;28;20458;-74
2022/02/08 09:36:20;;;;;;;23.52;6.25;;;;;;;7.58;51.37;100440.81;4971547;28;20173;-74
2022/02/08 09:38:47;;;;;;;17.65;5.35;;;;;;;7.81;51.11;100429.84;4974113;28;20101;-76
2022/02/08 09:41:16;;;;;;;18.45;4.38;;;;;;;7.94;50.93;100434.38;4973440;28;20404;-75
2022/02/08 09:43:44;;;;;;;15.13;5.93;;;;;;;7.95;50.91;100429.03;4968377;28;20189;-73
2022/02/08 09:46:11;;;;;;;15.82;6.75;;;;;;;8.18;50.88;100421.56;4968017;28;20051;-73
2022/02/08 09:48:43;;;;;;;18.00;4.72;;;;;;;8.29;50.83;100413.03;4967438;28;20061;-76
2022/02/08 09:51:13;;;;;;;16.00;5.60;;;;;;;8.37;50.68;100405.50;4962904;28;20058;-77
2022/02/08 09:53:44;;;;;;;10.90;4.85;;;;;;;8.31;50.68;100408.53;4964153;28;20145;-76
2022/02/08 09:56:12;;;;;;;15.23;5.35;;;;;;;8.36;50.52;100409.09;5028048;28;20100;-71
2022/02/08 09:58:40;;;;;;;19.35;5.55;;;;;;;8.34;50.18;100403.91;5025910;28;20049;-72
2022/02/08 10:01:10;;;;;;;14.48;5.93;;;;;;;8.31;49.96;100395.38;5024601;28;20105;-75
2022/02/08 10:03:38;;;;;;;20.88;6.40;;;;;;;8.24;50.40;100390.44;5024943;28;20596;-75
2022/02/08 10:06:07;;;;;;;16.33;5.45;;;;;;;8.27;50.52;100388.59;5024300;28;20132;-78
2022/02/08 10:08:36;;;;;;;11.95;3.90;;;;;;;8.19;50.64;100373.25;5025235;28;20432;-75
2022/02/08 10:11:13;;;;;;;19.00;7.32;;;;;;;8.38;50.75;100368.56;5023991;28;20047;-76
2022/02/08 10:13:55;;;;;;;24.95;10.43;;;;;;;8.62;50.28;100362.75;5023432;28;20045;-74
2022/02/08 10:19:42;;;;;;;19.58;7.40;;;;;;;8.50;49.71;100374.91;5023024;28;20056;-74
2022/02/08 10:22:08;;;;;;;19.10;6.47;;;;;;;8.67;50.00;100352.78;5022605;28;20421;-77
2022/02/08 10:24:47;;;;;;;17.55;6.82;;;;;;;8.72;49.86;100352.50;5024578;28;20053;-77
2022/02/08 10:27:28;;;;;;;22.10;8.07;;;;;;;8.73;50.13;100346.28;5024280;28;20072;-78
2022/02/08 10:30:26;;;;;;;23.70;10.40;;;;;;;8.84;50.20;100335.94;5028354;28;20049;-71
2022/02/08 10:38:22;;;;;;;23.50;8.40;;;;;;;8.92;49.75;100322.25;5025657;28;20076;-73
2022/02/08 10:40:55;;;;;;;17.73;7.25;;;;;;;8.88;49.79;100300.53;5025717;28;20045;-75
2022/02/08 10:43:23;;;;;;;22.10;8.75;;;;;;;8.83;49.57;100301.78;5024894;28;20103;-76
2022/02/08 10:45:54;;;;;;;21.80;7.60;;;;;;;8.80;49.76;100297.53;5025252;28;20554;-73
2022/02/08 10:48:25;;;;;;;22.25;9.13;;;;;;;8.75;49.93;100294.34;5025583;28;20144;-72
2022/02/08 10:50:56;;;;;;;27.52;9.48;;;;;;;8.72;49.74;100305.94;5024557;28;20073;-76
2022/02/08 10:53:27;;;;;;;17.98;7.22;;;;;;;8.78;49.79;100304.69;5026638;28;20063;-73
2022/02/08 10:56:01;;;;;;;14.88;8.43;;;;;;;8.76;49.92;100296.91;5026781;28;20061;-73
2022/02/08 10:58:33;;;;;;;17.13;6.50;;;;;;;8.71;49.87;100293.72;5025781;28;20501;-71
2022/02/08 11:01:06;;;;;;;17.83;7.35;;;;;;;8.82;49.79;100294.81;5027081;28;20042;-72
2022/02/08 11:03:41;;;;;;;10.98;6.38;;;;;;;8.72;49.54;100284.88;5026969;28;20045;-73
2022/02/08 11:06:21;;;;;;;13.90;7.28;;;;;;;8.74;49.73;100282.16;5026792;28;20140;-74
2022/02/08 11:09:15;;;;;;;16.52;6.78;;;;;;;8.72;49.84;100279.59;5026592;28;20046;-74
2022/02/08 11:12:06;;;;;;;18.52;6.25;;;;;;;8.59;50.04;100279.56;5023337;28;20062;-74
2022/02/08 11:14:45;;;;;;;20.30;9.00;;;;;;;8.61;49.90;100277.66;5027317;28;20069;-77
2022/02/08 11:20:21;;;;;;;15.10;6.50;;;;;;;8.63;49.76;100268.84;4965016;28;20208;-76
2022/02/08 11:22:55;;;;;;;15.75;7.65;;;;;;;8.61;49.77;100267.13;4967032;28;20248;-73
2022/02/08 11:25:26;;;;;;;9.88;5.35;;;;;;;8.52;49.49;100259.81;4947761;28;20710;-72
2022/02/08 11:28:12;;;;;;;17.38;7.20;;;;;;;8.46;49.35;100252.31;4965333;28;20290;-74
2022/02/08 11:30:47;;;;;;;;;;;;;;;8.55;48.65;100251.75;4947216;28;20476;-75
2022/02/08 11:33:35;;;;;;;15.52;4.80;;;;;;;8.37;49.27;100243.19;4962680;28;20073;-75
2022/02/08 11:39:16;;;;;;;14.05;6.10;;;;;;;8.33;49.52;100246.94;4963458;28;20189;-75
2022/02/08 11:45:21;;;;;;;16.65;7.45;;;;;;;8.32;49.63;100244.41;4963477;28;20645;-74
2022/02/08 11:48:08;;;;;;;15.85;6.78;;;;;;;8.38;49.33;100236.97;4964255;28;20109;-72
2022/02/08 11:50:47;;;;;;;18.67;6.28;;;;;;;8.44;49.40;100237.56;4964713;28;20721;-73
2022/02/08 11:53:28;;;;;;;20.65;9.55;;;;;;;8.54;49.57;100228.97;4965665;28;20055;-74
2022/02/08 11:59:19;;;;;;;14.27;6.53;;;;;;;8.54;49.27;100218.44;5027382;28;20505;-73
2022/02/08 12:02:05;;;;;;;17.38;9.02;;;;;;;8.59;49.12;100207.63;5027884;28;20140;-73
2022/02/08 12:04:53;;;;;;;15.23;8.40;;;;;;;8.62;49.46;100220.56;5027301;28;20462;-71
2022/02/08 12:07:20;;;;;;;21.45;9.43;;;;;;;8.61;49.32;100209.22;5027855;28;20048;-73
2022/02/08 12:09:54;;;;;;;15.40;7.72;;;;;;;8.56;49.71;100195.50;5025368;28;20645;-72
2022/02/08 12:32:12;;;;;;;18.85;9.10;;;;;;;7.50;52.94;100188.13;4964962;28;20502;-74
2022/02/08 12:35:07;;;;;;;15.07;8.35;;;;;;;7.53;52.92;100182.69;4963560;28;20043;-73
2022/02/08 12:49:08;;;;;;;22.10;7.45;;;;;;;7.14;54.63;100182.34;4964877;28;20085;-72
2022/02/08 12:52:29;;;;;;;14.15;6.55;;;;;;;6.99;55.44;100168.34;4981090;28;20140;-74
2022/02/08 12:55:08;;;;;;;12.48;5.05;;;;;;;6.90;55.74;100161.03;5027216;28;20060;-72
2022/02/08 12:57:44;;;;;;;18.27;7.32;;;;;;;6.76;56.44;100161.81;5029219;28;20378;-73
2022/02/08 13:00:30;;;;;;;21.25;7.95;;;;;;;6.72;56.57;100157.69;5027684;28;20049;-74
2022/02/08 13:14:54;;;;;;;22.27;6.93;;;;;;;6.55;58.14;100134.19;4875066;29;20072;-73
2022/02/08 13:24:44;;;;;;;18.02;8.77;;;;;;;6.60;58.56;100124.28;4877065;29;20144;-74
2022/02/08 14:01:50;;;;;;;18.02;10.38;;;;;;;7.00;60.11;100064.16;5042594;28;20520;-74
2022/02/08 14:07:07;;;;;;;31.92;14.40;;;;;;;6.97;60.57;100072.22;5016202;28;20063;-75
2022/02/08 14:17:56;;;;;;;33.53;16.10;;;;;;;6.95;60.85;100067.09;4958284;29;20119;-72
2022/02/08 14:23:22;;;;;;;22.45;12.23;;;;;;;6.98;61.03;100053.75;4954953;29;20085;-72
2022/02/08 14:26:00;;;;;;;16.95;9.13;;;;;;;7.00;60.87;100064.16;4953892;29;20488;-72
2022/02/08 14:31:37;;;;;;;23.98;12.45;;;;;;;7.02;61.10;100057.91;4954260;29;20174;-72
2022/02/08 14:34:27;;;;;;;29.90;13.05;;;;;;;7.00;61.28;100070.25;4954229;29;20062;-72
2022/02/08 14:37:15;;;;;;;30.33;15.68;;;;;;;6.96;61.52;100070.53;4953410;29;20055;-76
2022/02/08 15:10:28;;;;;;;27.65;14.98;;;;;;;6.66;63.58;100040.78;4838870;29;20050;-71
2022/02/08 15:12:58;;;;;;;22.20;14.98;;;;;;;6.63;64.26;100043.59;4860130;29;20050;-75
2022/02/08 15:15:32;;;;;;;20.30;13.05;;;;;;;6.61;64.35;100027.09;4862315;29;20062;-72
2022/02/08 15:17:59;;;;;;;23.25;12.52;;;;;;;6.62;64.35;100028.78;4841399;29;20039;-72
2022/02/08 15:20:28;;;;;;;26.88;16.05;;;;;;;6.64;64.14;100034.78;4897953;29;20033;-75
2022/02/08 15:23:08;;;;;;;46.25;25.38;;;;;;;6.65;64.35;100039.09;4914925;29;20067;-74
2022/02/08 15:25:35;;;;;;;36.38;19.77;;;;;;;6.65;64.22;100036.47;4916498;29;20207;-71
2022/02/08 15:28:03;;;;;;;23.05;12.75;;;;;;;6.63;64.50;100021.75;4917006;29;20033;-71
2022/02/08 15:30:32;;;;;;;23.17;12.80;;;;;;;6.62;64.32;100018.28;4917010;29;20052;-71